Bowling Green Warren County Regional Airport Bowling Green US
ICAO: KBWG
IATA: BWG
Category: Medium
Scheduled Services: No

Elevation: 547 ft
TransAlt. 18000 ft.

Airport Communications:
ASOS:127.825
MEMPHIS CNTR:133.85
LOUISVILLE RDO:122.2
CTAF/UNICOM:123

KBWG Zoom In..

Runways:

(A) RW 03 length 6499 ft width 150 ft
ILS 108.75 / hdg 32

(B) RW 12 length 3955 ft width 150 ft
---- / hdg 122

(C) RW 21 length 6499 ft width 150 ft
---- / hdg 212

(D) RW 30 length 3955 ft width 150 ft
---- / hdg 302

Location; KBWG
Day. 24 / Time. 01.53 Zulu
* Altimeter: 30.21
* Temperature: 03° c. 37.4°f.
* Wind from: 310° Speed 07 kn.
Dewpoint: 01° c.
Visibility: 9 Statute Miles.
Clouds: Broken 1300 ft.
Clouds: Overcast 1900 ft.

KBWG 240153Z AUTO 31007KT 9SM BKN013 OVC019 03/01 A3021 RMK AO2 SLP232 T00280006


Wind From 310°
Speed 07 kn.

YouTube Music Video
 
jpsmedia.com for Web Design  worldairports.se 2018   terms of use